PWSweather.com
Personal Weather Stations
Station Observations
SPARKSRC
St. Petersburg, FL 33716

St. Petersburg, FL 33716

Lat: 27.876101, Lon: -82.657194

Elevation: 13

Station Type: Zephyr PWS-1000TD

Latest ConditionsUpdated 4:10:01 AM EST Monday, Nov 24, 2014
Currently Today's Max Today's Min Today's Average
Temperature 75.6°F24.2°C 76.1°F24.5°C 75.6°F24.2°C 75.7°F24.3°C
Dew Point 75.3°F24.1°C 75.9°F24.4°C 75.3°F24.1°C 75.5°F24.2°C
Winds 13.6 mph S21.9 kmh S 15.9 mph S25.6 kmh S - 10.1 mph 16.3 kmh
Wind Gusts 18.3 mph29.5 kmh 20.6 mph33.2 kmh - -
Humidity 99% 99% 99% 99%
Pressure 29.86 in1011.2 mb 29.87 in1011.5 mb 29.85 in1010.8 mb -
Hour Temp Dew Point Humidity Winds Wind Gusts Pressure Precip Precip Rate Daily Precip Total
04:10 AM 75.6°F24.2°C 75.3°F24.1°C 99% 13.6 mph S21.9 kmh S 18.3 mph29.5 kmh 29.86 in1011.2 mb 0.00 in0.0 mm 0.00 in/hr0.0 mm/hr 0.00 in0.0 mm
04:05 AM 75.6°F24.2°C 75.3°F24.1°C 99% 9.2 mph S14.8 kmh S 15.9 mph25.6 kmh 29.86 in1011.2 mb 0.00 in0.0 mm 0.00 in/hr0.0 mm/hr 0.00 in0.0 mm
04:00 AM 75.6°F24.2°C 75.3°F24.1°C 99% 9.2 mph S14.8 kmh S 16.8 mph27.0 kmh 29.86 in1011.2 mb 0.00 in0.0 mm 0.00 in/hr0.0 mm/hr 0.00 in0.0 mm
03:55 AM 75.6°F24.2°C 75.3°F24.1°C 99% 9.2 mph S14.8 kmh S 17.4 mph28.0 kmh 29.86 in1011.2 mb 0.00 in0.0 mm 0.00 in/hr0.0 mm/hr 0.00 in0.0 mm
03:50 AM 75.6°F24.2°C 75.3°F24.1°C 99% 10.7 mph S17.2 kmh S 18.3 mph29.5 kmh 29.86 in1011.2 mb 0.00 in0.0 mm 0.00 in/hr0.0 mm/hr 0.00 in0.0 mm
03:45 AM 75.6°F24.2°C 75.3°F24.1°C 99% 13.6 mph S21.9 kmh S 18.3 mph29.5 kmh 29.86 in1011.2 mb 0.00 in0.0 mm 0.00 in/hr0.0 mm/hr 0.00 in0.0 mm
03:40 AM 75.7°F24.3°C 75.5°F24.2°C 99% 13.0 mph S20.9 kmh S 19.0 mph30.6 kmh 29.86 in1011.2 mb 0.00 in0.0 mm 0.00 in/hr0.0 mm/hr 0.00 in0.0 mm
03:35 AM 75.7°F24.3°C 75.5°F24.2°C 99% 11.4 mph S18.3 kmh S 19.0 mph30.6 kmh 29.85 in1010.8 mb 0.00 in0.0 mm 0.00 in/hr0.0 mm/hr 0.00 in0.0 mm
03:30 AM 75.7°F24.3°C 75.5°F24.2°C 99% 12.1 mph S19.5 kmh S 19.7 mph31.7 kmh 29.86 in1011.2 mb 0.00 in0.0 mm 0.00 in/hr0.0 mm/hr 0.00 in0.0 mm
03:25 AM 75.7°F24.3°C 75.5°F24.2°C 99% 12.1 mph S19.5 kmh S 19.7 mph31.7 kmh 29.86 in1011.2 mb 0.00 in0.0 mm 0.00 in/hr0.0 mm/hr 0.00 in0.0 mm
03:20 AM 75.9°F24.4°C 75.7°F24.3°C 99% 13.6 mph S21.9 kmh S 19.7 mph31.7 kmh 29.86 in1011.2 mb 0.00 in0.0 mm 0.00 in/hr0.0 mm/hr 0.00 in0.0 mm
03:15 AM 75.9°F24.4°C 75.7°F24.3°C 99% 9.8 mph S15.8 kmh S 18.3 mph29.5 kmh 29.86 in1011.2 mb 0.00 in0.0 mm 0.00 in/hr0.0 mm/hr 0.00 in0.0 mm
03:10 AM 75.9°F24.4°C 75.7°F24.3°C 99% 10.7 mph S17.2 kmh S 17.4 mph28.0 kmh 29.86 in1011.2 mb 0.00 in0.0 mm 0.00 in/hr0.0 mm/hr 0.00 in0.0 mm
03:05 AM 75.9°F24.4°C 75.7°F24.3°C 99% 15.9 mph S25.6 kmh S 18.3 mph29.5 kmh 29.85 in1010.8 mb 0.00 in0.0 mm 0.00 in/hr0.0 mm/hr 0.00 in0.0 mm
03:00 AM 75.9°F24.4°C 75.7°F24.3°C 99% 15.9 mph S25.6 kmh S 18.3 mph29.5 kmh 29.85 in1010.8 mb 0.00 in0.0 mm 0.00 in/hr0.0 mm/hr 0.00 in0.0 mm
02:55 AM 76.1°F24.5°C 75.9°F24.4°C 99% 14.5 mph S23.3 kmh S 20.6 mph33.2 kmh 29.85 in1010.8 mb 0.00 in0.0 mm 0.00 in/hr0.0 mm/hr 0.00 in0.0 mm
02:50 AM 75.9°F24.4°C 75.7°F24.3°C 99% 11.4 mph S18.3 kmh S 20.6 mph33.2 kmh 29.85 in1010.8 mb 0.00 in0.0 mm 0.00 in/hr0.0 mm/hr 0.00 in0.0 mm
02:45 AM 75.7°F24.3°C 75.5°F24.2°C 99% 9.8 mph S15.8 kmh S 16.8 mph27.0 kmh 29.85 in1010.8 mb 0.00 in0.0 mm 0.00 in/hr0.0 mm/hr 0.00 in0.0 mm
02:40 AM 75.9°F24.4°C 75.7°F24.3°C 99% 9.8 mph S15.8 kmh S 19.0 mph30.6 kmh 29.85 in1010.8 mb 0.00 in0.0 mm 0.00 in/hr0.0 mm/hr 0.00 in0.0 mm
02:35 AM 75.7°F24.3°C 75.5°F24.2°C 99% 13.6 mph S21.9 kmh S 19.0 mph30.6 kmh 29.85 in1010.8 mb 0.00 in0.0 mm 0.00 in/hr0.0 mm/hr 0.00 in0.0 mm
02:30 AM 75.7°F24.3°C 75.5°F24.2°C 99% 12.1 mph S19.5 kmh S 19.0 mph30.6 kmh 29.85 in1010.8 mb 0.00 in0.0 mm 0.00 in/hr0.0 mm/hr 0.00 in0.0 mm
02:25 AM 75.6°F24.2°C 75.3°F24.1°C 99% 10.7 mph S17.2 kmh S 15.9 mph25.6 kmh 29.85 in1010.8 mb 0.00 in0.0 mm 0.00 in/hr0.0 mm/hr 0.00 in0.0 mm
02:20 AM 75.7°F24.3°C 75.5°F24.2°C 99% 11.4 mph S18.3 kmh S 15.9 mph25.6 kmh 29.85 in1010.8 mb 0.00 in0.0 mm 0.00 in/hr0.0 mm/hr 0.00 in0.0 mm
02:15 AM 75.7°F24.3°C 75.5°F24.2°C 99% 12.1 mph S19.5 kmh S 15.9 mph25.6 kmh 29.85 in1010.8 mb 0.00 in0.0 mm 0.00 in/hr0.0 mm/hr 0.00 in0.0 mm
02:10 AM 75.7°F24.3°C 75.5°F24.2°C 99% 10.7 mph S17.2 kmh S 15.9 mph25.6 kmh 29.85 in1010.8 mb 0.00 in0.0 mm 0.00 in/hr0.0 mm/hr 0.00 in0.0 mm
02:05 AM 75.6°F24.2°C 75.3°F24.1°C 99% 8.3 mph S13.4 kmh S 13.6 mph21.9 kmh 29.85 in1010.8 mb 0.00 in0.0 mm 0.00 in/hr0.0 mm/hr 0.00 in0.0 mm
02:00 AM 75.6°F24.2°C 75.3°F24.1°C 99% 8.3 mph S13.4 kmh S 13.6 mph21.9 kmh 29.85 in1010.8 mb 0.00 in0.0 mm 0.00 in/hr0.0 mm/hr 0.00 in0.0 mm
01:55 AM 75.6°F24.2°C 75.3°F24.1°C 99% 8.3 mph S13.4 kmh S 13.6 mph21.9 kmh 29.85 in1010.8 mb 0.00 in0.0 mm 0.00 in/hr0.0 mm/hr 0.00 in0.0 mm
01:50 AM 75.6°F24.2°C 75.3°F24.1°C 99% 6.9 mph S11.1 kmh S 13.6 mph21.9 kmh 29.85 in1010.8 mb 0.00 in0.0 mm 0.00 in/hr0.0 mm/hr 0.00 in0.0 mm
01:45 AM 75.6°F24.2°C 75.3°F24.1°C 99% 6.9 mph S11.1 kmh S 16.8 mph27.0 kmh 29.85 in1010.8 mb 0.00 in0.0 mm 0.00 in/hr0.0 mm/hr 0.00 in0.0 mm
01:40 AM 75.6°F24.2°C 75.3°F24.1°C 99% 9.8 mph S15.8 kmh S 16.8 mph27.0 kmh 29.85 in1010.8 mb 0.00 in0.0 mm 0.00 in/hr0.0 mm/hr 0.00 in0.0 mm
01:35 AM 75.6°F24.2°C 75.3°F24.1°C 99% 9.2 mph S14.8 kmh S 13.6 mph21.9 kmh 29.85 in1010.8 mb 0.00 in0.0 mm 0.00 in/hr0.0 mm/hr 0.00 in0.0 mm
01:30 AM 75.6°F24.2°C 75.3°F24.1°C 99% 8.3 mph S13.4 kmh S 14.5 mph23.3 kmh 29.85 in1010.8 mb 0.00 in0.0 mm 0.00 in/hr0.0 mm/hr 0.00 in0.0 mm
01:25 AM 75.6°F24.2°C 75.3°F24.1°C 99% 10.7 mph SSE17.2 kmh SSE 14.5 mph23.3 kmh 29.85 in1010.8 mb 0.00 in0.0 mm 0.00 in/hr0.0 mm/hr 0.00 in0.0 mm
01:20 AM 75.6°F24.2°C 75.3°F24.1°C 99% 7.6 mph SE12.2 kmh SE 13.6 mph21.9 kmh 29.85 in1010.8 mb 0.00 in0.0 mm 0.00 in/hr0.0 mm/hr 0.00 in0.0 mm
01:15 AM 75.6°F24.2°C 75.3°F24.1°C 99% 6.0 mph SSE9.7 kmh SSE 13.0 mph20.9 kmh 29.85 in1010.8 mb 0.00 in0.0 mm 0.00 in/hr0.0 mm/hr 0.00 in0.0 mm
01:10 AM 75.6°F24.2°C 75.3°F24.1°C 99% 7.6 mph SSE12.2 kmh SSE 15.9 mph25.6 kmh 29.85 in1010.8 mb 0.00 in0.0 mm 0.00 in/hr0.0 mm/hr 0.00 in0.0 mm
01:05 AM 75.7°F24.3°C 75.5°F24.2°C 99% 9.2 mph S14.8 kmh S 15.9 mph25.6 kmh 29.85 in1010.8 mb 0.00 in0.0 mm 0.00 in/hr0.0 mm/hr 0.00 in0.0 mm
01:00 AM 75.7°F24.3°C 75.5°F24.2°C 99% 13.0 mph S20.9 kmh S 15.9 mph25.6 kmh 29.85 in1010.8 mb 0.00 in0.0 mm 0.00 in/hr0.0 mm/hr 0.00 in0.0 mm
12:55 AM 75.7°F24.3°C 75.5°F24.2°C 99% 9.8 mph S15.8 kmh S 14.5 mph23.3 kmh 29.85 in1010.8 mb 0.00 in0.0 mm 0.00 in/hr0.0 mm/hr 0.00 in0.0 mm
12:50 AM 75.7°F24.3°C 75.5°F24.2°C 99% 9.8 mph S15.8 kmh S 13.0 mph20.9 kmh 29.86 in1011.2 mb 0.00 in0.0 mm 0.00 in/hr0.0 mm/hr 0.00 in0.0 mm
12:45 AM 75.7°F24.3°C 75.5°F24.2°C 99% 6.9 mph S11.1 kmh S 16.8 mph27.0 kmh 29.85 in1010.8 mb 0.00 in0.0 mm 0.00 in/hr0.0 mm/hr 0.00 in0.0 mm
12:40 AM 75.9°F24.4°C 75.7°F24.3°C 99% 8.3 mph S13.4 kmh S 16.8 mph27.0 kmh 29.86 in1011.2 mb 0.00 in0.0 mm 0.00 in/hr0.0 mm/hr 0.00 in0.0 mm
12:35 AM 75.7°F24.3°C 75.5°F24.2°C 99% 9.2 mph S14.8 kmh S 15.9 mph25.6 kmh 29.86 in1011.2 mb 0.00 in0.0 mm 0.00 in/hr0.0 mm/hr 0.00 in0.0 mm
12:30 AM 75.7°F24.3°C 75.5°F24.2°C 99% 8.3 mph S13.4 kmh S 15.9 mph25.6 kmh 29.86 in1011.2 mb 0.00 in0.0 mm 0.00 in/hr0.0 mm/hr 0.00 in0.0 mm
12:25 AM 75.7°F24.3°C 75.5°F24.2°C 99% 6.0 mph S9.7 kmh S 13.0 mph20.9 kmh 29.86 in1011.2 mb 0.00 in0.0 mm 0.00 in/hr0.0 mm/hr 0.00 in0.0 mm
12:20 AM 75.6°F24.2°C 75.3°F24.1°C 99% 9.2 mph S14.8 kmh S 13.6 mph21.9 kmh 29.86 in1011.2 mb 0.00 in0.0 mm 0.00 in/hr0.0 mm/hr 0.00 in0.0 mm
12:15 AM 75.7°F24.3°C 75.5°F24.2°C 99% 6.9 mph S11.1 kmh S 13.6 mph21.9 kmh 29.87 in1011.5 mb 0.00 in0.0 mm 0.00 in/hr0.0 mm/hr 0.00 in0.0 mm
12:10 AM 75.7°F24.3°C 75.5°F24.2°C 99% 6.9 mph S11.1 kmh S 13.6 mph21.9 kmh 29.86 in1011.2 mb 0.00 in0.0 mm 0.00 in/hr0.0 mm/hr 0.00 in0.0 mm
12:05 AM 75.6°F24.2°C 75.3°F24.1°C 99% 9.8 mph S15.8 kmh S 15.2 mph24.5 kmh 29.87 in1011.5 mb 0.00 in0.0 mm 0.00 in/hr0.0 mm/hr 0.00 in0.0 mm
12:00 AM 75.6°F24.2°C 75.3°F24.1°C 99% 7.6 mph S12.2 kmh S 15.2 mph24.5 kmh 29.87 in1011.5 mb 0.00 in0.0 mm 0.00 in/hr0.0 mm/hr 0.14 in3.6 mm